Time;durP1;ratioP1;P1;durP2;ratioP2;P2;SDS_P1;SDS_P2;PMS_P1;PMS_P2;Temp;Humidity;BMP_temperature;BMP_pressure;BME280_temperature;BME280_humidity;BME280_pressure;Samples;Min_cycle;Max_cycle;Signal;HPM_P1;HPM_P2
2022/01/02 00:00:02;;;;;;;5.47;1.17;;;11.40;99.90;;;;;;5115520;28;20476;-86
2022/01/02 00:02:33;;;;;;;5.60;1.37;;;11.40;99.90;;;;;;5115335;28;20403;-85
2022/01/02 00:05:05;;;;;;;4.17;1.37;;;11.40;99.90;;;;;;5097022;28;20265;-86
2022/01/02 00:07:35;;;;;;;3.50;1.13;;;11.40;99.90;;;;;;5115319;28;20404;-86
2022/01/02 00:10:04;;;;;;;6.03;1.00;;;11.30;99.90;;;;;;5114775;28;20472;-86
2022/01/02 00:12:33;;;;;;;3.77;1.13;;;11.30;99.90;;;;;;5115197;28;20399;-86
2022/01/02 00:15:04;;;;;;;1.90;0.77;;;11.40;99.90;;;;;;5115032;28;21116;-87
2022/01/02 00:17:31;;;;;;;3.63;1.17;;;11.30;99.90;;;;;;5115157;28;20406;-86
2022/01/02 00:20:02;;;;;;;3.03;0.67;;;11.30;99.90;;;;;;5115026;28;20825;-87
2022/01/02 00:22:35;;;;;;;5.10;0.60;;;11.20;99.90;;;;;;5115073;28;20731;-86
2022/01/02 00:25:04;;;;;;;3.27;0.70;;;11.20;99.90;;;;;;5114604;28;20432;-86
2022/01/02 00:27:34;;;;;;;1.80;1.40;;;11.20;99.90;;;;;;5096559;28;20414;-86
2022/01/02 00:30:04;;;;;;;7.00;1.73;;;11.20;99.90;;;;;;5114813;28;20780;-87
2022/01/02 00:32:33;;;;;;;3.60;1.13;;;11.10;99.90;;;;;;5114828;28;20410;-86
2022/01/02 00:35:00;;;;;;;2.40;0.73;;;11.10;99.90;;;;;;5114782;28;20466;-86
2022/01/02 00:37:26;;;;;;;5.87;1.50;;;11.00;99.90;;;;;;5114487;28;20439;-87
2022/01/02 00:39:51;;;;;;;5.40;1.80;;;11.10;99.90;;;;;;5114396;28;20417;-87
2022/01/02 00:42:31;;;;;;;4.53;1.63;;;11.10;99.90;;;;;;5114522;28;20411;-87
2022/01/02 00:45:00;;;;;;;3.20;1.60;;;11.00;99.90;;;;;;5114583;28;20169;-87
2022/01/02 00:47:36;;;;;;;3.17;1.20;;;11.00;99.90;;;;;;5114405;28;21002;-87
2022/01/02 00:50:05;;;;;;;2.80;1.50;;;11.10;99.90;;;;;;5096043;28;20949;-86
2022/01/02 00:52:35;;;;;;;7.17;2.10;;;11.10;99.90;;;;;;5114135;28;20415;-85
2022/01/02 00:55:03;;;;;;;7.30;2.30;;;11.10;99.90;;;;;;5113985;28;20474;-86
2022/01/02 00:57:35;;;;;;;4.70;1.20;;;11.00;99.90;;;;;;5114213;28;20411;-85
2022/01/02 01:00:15;;;;;;;2.70;1.37;;;11.10;99.90;;;;;;5105641;28;20848;-86
2022/01/02 01:02:47;;;;;;;2.60;1.00;;;11.10;99.90;;;;;;5126800;28;20499;-86
2022/01/02 01:05:26;;;;;;;2.80;1.20;;;11.10;99.90;;;;;;5124153;28;20977;-85
2022/01/02 01:07:56;;;;;;;5.40;1.90;;;11.00;99.90;;;;;;5123608;28;20417;-86
2022/01/02 01:10:24;;;;;;;1.43;1.03;;;11.00;99.90;;;;;;5120180;28;20418;-86
2022/01/02 01:12:52;;;;;;;1.27;0.80;;;11.00;99.90;;;;;;5122798;28;20553;-86
2022/01/02 01:15:20;;;;;;;4.10;1.20;;;11.10;99.90;;;;;;5114232;28;20479;-85
2022/01/02 01:17:46;;;;;;;4.20;1.40;;;11.10;99.90;;;;;;5113961;28;20906;-86
2022/01/02 01:20:14;;;;;;;3.13;1.13;;;11.10;99.90;;;;;;5114051;28;20911;-85
2022/01/02 01:22:40;;;;;;;3.53;1.37;;;11.10;99.90;;;;;;5114645;28;20412;-88
2022/01/02 01:25:12;;;;;;;2.47;0.90;;;11.00;99.90;;;;;;5114917;28;20406;-87
2022/01/02 01:27:38;;;;;;;4.07;1.30;;;11.10;99.90;;;;;;5114761;28;20415;-87
2022/01/02 01:30:05;;;;;;;3.33;1.30;;;11.00;99.90;;;;;;5114801;28;20510;-88
2022/01/02 01:32:30;;;;;;;5.83;1.60;;;11.00;99.90;;;;;;5114746;28;20771;-88
2022/01/02 01:34:56;;;;;;;3.93;2.03;;;11.00;99.90;;;;;;5113872;28;20556;-87
2022/01/02 01:37:21;;;;;;;3.73;1.93;;;11.00;99.90;;;;;;5113757;28;20681;-87
2022/01/02 01:39:47;;;;;;;5.20;1.60;;;11.00;99.90;;;;;;5113407;28;20552;-87
2022/01/02 01:42:13;;;;;;;4.60;1.43;;;10.90;99.90;;;;;;5095537;28;20212;-87
2022/01/02 01:44:52;;;;;;;2.47;1.10;;;11.00;99.90;;;;;;5113626;28;20173;-87
2022/01/02 01:47:18;;;;;;;3.03;1.87;;;11.00;99.90;;;;;;5113746;28;20553;-87
2022/01/02 01:49:43;;;;;;;2.40;1.43;;;11.00;99.90;;;;;;5113640;28;20438;-87
2022/01/02 01:52:09;;;;;;;2.30;1.07;;;11.00;99.90;;;;;;5113633;28;20760;-87
2022/01/02 01:54:34;;;;;;;2.43;1.10;;;11.00;99.90;;;;;;5095076;28;20222;-88
2022/01/02 01:57:02;;;;;;;4.07;1.20;;;10.90;99.90;;;;;;5113645;28;20176;-87
2022/01/02 01:59:28;;;;;;;2.70;1.60;;;10.90;99.90;;;;;;5113601;28;20626;-87
2022/01/02 02:01:53;;;;;;;8.60;1.27;;;10.90;99.90;;;;;;5095928;28;20415;-88
2022/01/02 02:04:19;;;;;;;5.67;1.00;;;10.80;99.90;;;;;;5099716;28;20164;-87
2022/01/02 02:06:44;;;;;;;4.63;1.70;;;10.90;99.90;;;;;;5117905;28;20713;-86
2022/01/02 02:09:10;;;;;;;5.13;1.63;;;10.90;99.90;;;;;;5117553;28;20196;-87
2022/01/02 02:11:38;;;;;;;2.80;1.70;;;10.90;99.90;;;;;;5117865;28;20195;-87
2022/01/02 02:14:06;;;;;;;2.70;1.80;;;10.80;99.90;;;;;;5099459;28;20208;-87
2022/01/02 02:16:33;;;;;;;5.40;2.80;;;10.80;99.90;;;;;;5117911;28;20426;-87
2022/01/02 02:18:59;;;;;;;3.03;1.20;;;10.80;99.90;;;;;;5118096;28;20399;-87
2022/01/02 02:21:36;;;;;;;4.60;1.80;;;10.80;99.90;;;;;;5117538;28;20410;-88
2022/01/02 02:24:04;;;;;;;3.63;1.77;;;10.80;99.90;;;;;;5098858;28;20420;-87
2022/01/02 02:26:36;;;;;;;6.83;2.30;;;10.80;99.90;;;;;;5099111;28;20422;-87
2022/01/02 02:29:04;;;;;;;3.30;1.10;;;10.70;99.90;;;;;;5099029;28;20988;-87
2022/01/02 02:31:30;;;;;;;4.60;3.00;;;10.70;99.90;;;;;;5117355;28;20930;-87
2022/01/02 02:33:55;;;;;;;3.33;1.33;;;10.70;99.90;;;;;;5099043;28;20488;-87
2022/01/02 02:36:21;;;;;;;2.83;1.00;;;10.70;99.90;;;;;;5117422;28;20181;-87
2022/01/02 02:38:47;;;;;;;3.13;2.10;;;10.60;99.90;;;;;;5122056;28;20266;-87
2022/01/02 02:41:13;;;;;;;4.57;2.33;;;10.60;99.90;;;;;;5122084;28;20172;-87
2022/01/02 02:43:53;;;;;;;5.30;1.43;;;10.70;99.90;;;;;;5118300;28;20233;-88
2022/01/02 02:49:05;;;;;;;5.90;1.90;;;10.60;99.90;;;;;;5120679;28;20791;-89
2022/01/02 02:51:53;;;;;;;2.37;1.50;;;10.60;99.90;;;;;;5101289;28;20913;-87
2022/01/02 02:54:22;;;;;;;3.60;1.83;;;10.50;99.90;;;;;;5118024;28;20468;-88
2022/01/02 02:56:59;;;;;;;3.77;2.70;;;10.50;99.90;;;;;;5118275;28;20420;-88
2022/01/02 02:59:30;;;;;;;7.80;3.50;;;10.40;99.90;;;;;;5126476;28;20415;-87
2022/01/02 03:01:56;;;;;;;6.13;2.13;;;10.50;99.90;;;;;;5137914;28;20480;-87
2022/01/02 03:04:23;;;;;;;4.77;2.80;;;10.40;99.90;;;;;;5137658;28;20424;-84
2022/01/02 03:06:49;;;;;;;2.60;1.60;;;10.50;99.90;;;;;;5139102;28;20414;-87
2022/01/02 03:09:18;;;;;;;5.83;3.80;;;10.50;99.90;;;;;;5137072;28;20443;-86
2022/01/02 03:11:43;;;;;;;4.67;2.47;;;10.50;99.90;;;;;;5119116;28;20437;-87
2022/01/02 03:14:12;;;;;;;3.73;2.63;;;10.50;99.90;;;;;;5135820;28;20472;-86
2022/01/02 03:16:38;;;;;;;6.50;3.00;;;10.50;99.90;;;;;;5120766;28;20197;-86
2022/01/02 03:19:05;;;;;;;5.97;2.67;;;10.50;99.90;;;;;;5124977;28;20441;-85
2022/01/02 03:21:31;;;;;;;5.63;3.37;;;10.50;99.90;;;;;;5128411;28;20409;-88
2022/01/02 03:23:56;;;;;;;6.37;1.97;;;10.50;99.90;;;;;;5125249;28;20465;-88
2022/01/02 03:26:23;;;;;;;7.60;3.50;;;10.40;99.90;;;;;;5126308;28;20813;-86
2022/01/02 03:28:49;;;;;;;10.90;3.67;;;10.40;99.90;;;;;;5125244;28;20187;-88
2022/01/02 03:31:15;;;;;;;4.13;2.77;;;10.40;99.90;;;;;;5123209;28;20410;-86
2022/01/02 03:33:41;;;;;;;5.70;2.30;;;10.40;99.90;;;;;;5122889;28;20195;-87
2022/01/02 03:36:07;;;;;;;5.53;2.90;;;10.40;99.90;;;;;;5127533;28;20414;-86
2022/01/02 03:38:33;;;;;;;5.97;2.70;;;10.40;99.90;;;;;;5099443;28;20468;-86
2022/01/02 03:40:58;;;;;;;6.60;3.33;;;10.40;99.90;;;;;;5115199;28;20163;-87
2022/01/02 03:43:24;;;;;;;5.97;2.40;;;10.40;99.90;;;;;;5114804;28;20414;-87
2022/01/02 03:45:50;;;;;;;4.40;2.60;;;10.30;99.90;;;;;;5114706;28;20168;-87
2022/01/02 03:48:15;;;;;;;7.87;3.47;;;10.40;99.90;;;;;;5114641;28;20222;-87
2022/01/02 03:50:41;;;;;;;5.20;3.53;;;10.40;99.90;;;;;;5114377;28;20225;-87
2022/01/02 03:53:07;;;;;;;6.47;2.33;;;10.30;99.90;;;;;;5096389;28;20481;-87
2022/01/02 03:55:34;;;;;;;4.13;2.10;;;10.30;99.90;;;;;;5114581;28;20275;-85
2022/01/02 03:58:00;;;;;;;5.47;2.23;;;10.30;99.90;;;;;;5114411;28;20448;-88
2022/01/02 04:00:26;;;;;;;5.57;3.50;;;10.30;99.90;;;;;;5114553;28;20457;-87
2022/01/02 04:02:52;;;;;;;5.93;2.90;;;10.30;99.90;;;;;;5114365;28;20407;-88
2022/01/02 04:05:17;;;;;;;5.27;3.47;;;10.30;99.90;;;;;;5114869;28;20500;-88
2022/01/02 04:07:44;;;;;;;7.13;4.13;;;10.30;99.90;;;;;;5115506;28;20196;-88
2022/01/02 04:10:15;;;;;;;5.40;3.40;;;10.30;99.90;;;;;;5115061;28;20168;-89
2022/01/02 04:12:42;;;;;;;6.27;2.70;;;10.30;99.90;;;;;;5115400;28;20497;-89
2022/01/02 04:15:12;;;;;;;5.30;3.27;;;10.30;99.90;;;;;;5096880;28;20469;-88
2022/01/02 04:17:39;;;;;;;7.73;2.80;;;10.30;99.90;;;;;;5114949;28;20414;-88
2022/01/02 04:20:07;;;;;;;6.10;3.63;;;10.20;99.90;;;;;;5114461;28;20500;-87
2022/01/02 04:22:36;;;;;;;5.17;4.00;;;10.30;99.90;;;;;;5114496;28;20416;-88
2022/01/02 04:25:03;;;;;;;5.30;3.50;;;10.20;99.90;;;;;;5096768;28;20410;-88
2022/01/02 04:27:30;;;;;;;7.17;2.90;;;10.30;99.90;;;;;;5114901;28;20417;-89
2022/01/02 04:29:55;;;;;;;5.63;3.60;;;10.20;99.90;;;;;;5115200;28;20406;-89
2022/01/02 04:32:21;;;;;;;6.20;3.47;;;10.30;99.90;;;;;;5115053;28;20404;-89
2022/01/02 04:34:47;;;;;;;6.50;3.67;;;10.30;99.90;;;;;;5096731;28;20575;-88
2022/01/02 04:37:13;;;;;;;9.37;4.23;;;10.30;99.90;;;;;;5114819;28;20406;-88
2022/01/02 04:39:39;;;;;;;6.87;2.93;;;10.30;99.90;;;;;;5114676;28;20183;-89
2022/01/02 04:42:06;;;;;;;5.30;3.97;;;10.30;99.90;;;;;;5114962;28;20436;-86
2022/01/02 04:44:31;;;;;;;8.83;5.27;;;10.30;99.90;;;;;;5114984;28;20416;-87
2022/01/02 04:46:57;;;;;;;7.47;3.60;;;10.30;99.90;;;;;;5114883;28;20500;-89
2022/01/02 04:49:22;;;;;;;6.30;3.30;;;10.40;99.90;;;;;;5114763;28;20637;-86
2022/01/02 04:51:48;;;;;;;9.40;4.23;;;10.30;99.90;;;;;;5114678;28;20164;-89
2022/01/02 04:54:17;;;;;;;7.97;4.60;;;10.30;99.90;;;;;;5095982;28;20204;-87
2022/01/02 04:56:42;;;;;;;6.33;4.03;;;10.30;99.90;;;;;;5114611;28;20195;-87
2022/01/02 04:59:08;;;;;;;6.43;3.73;;;10.30;99.90;;;;;;5096478;28;20420;-88
2022/01/02 05:01:34;;;;;;;7.80;4.20;;;10.30;99.90;;;;;;5114686;28;20629;-88
2022/01/02 05:03:59;;;;;;;6.13;3.50;;;10.40;99.90;;;;;;5114833;28;20175;-89
2022/01/02 05:06:25;;;;;;;5.53;3.77;;;10.30;99.90;;;;;;5114746;28;20688;-88
2022/01/02 05:08:53;;;;;;;10.50;4.10;;;10.30;99.90;;;;;;5096251;28;20558;-87
2022/01/02 05:11:18;;;;;;;7.43;4.10;;;10.30;99.90;;;;;;5114762;28;20250;-89
2022/01/02 05:13:44;;;;;;;9.03;4.33;;;10.30;99.90;;;;;;5114330;28;20531;-89
2022/01/02 05:16:10;;;;;;;10.43;4.70;;;10.30;99.90;;;;;;5114722;28;20663;-89
2022/01/02 05:18:36;;;;;;;8.97;5.27;;;10.30;99.90;;;;;;5114280;28;20174;-89
2022/01/02 05:21:02;;;;;;;7.40;4.73;;;10.30;99.90;;;;;;5114218;28;20421;-89
2022/01/02 05:23:29;;;;;;;8.57;5.03;;;10.30;99.90;;;;;;5114086;28;20416;-88
2022/01/02 05:25:57;;;;;;;8.70;4.70;;;10.30;99.90;;;;;;5114459;28;20416;-88
2022/01/02 05:28:23;;;;;;;6.40;4.97;;;10.30;99.90;;;;;;5113800;28;20446;-88
2022/01/02 05:30:49;;;;;;;5.47;3.97;;;10.30;99.90;;;;;;5114144;28;20821;-88
2022/01/02 05:33:15;;;;;;;7.77;3.97;;;10.30;99.90;;;;;;5114199;28;20945;-88
2022/01/02 05:35:41;;;;;;;8.73;4.70;;;10.30;99.90;;;;;;5113935;28;20499;-88
2022/01/02 05:38:06;;;;;;;7.53;4.37;;;10.30;99.90;;;;;;5113098;28;20216;-88
2022/01/02 05:40:33;;;;;;;9.80;4.57;;;10.30;99.90;;;;;;5114030;28;20164;-87
2022/01/02 05:43:03;;;;;;;10.40;5.10;;;10.30;99.90;;;;;;5114195;28;20170;-89
2022/01/02 05:45:29;;;;;;;7.13;3.70;;;10.30;99.90;;;;;;5114167;28;20555;-87
2022/01/02 05:47:54;;;;;;;10.90;5.90;;;10.30;99.90;;;;;;5115286;28;20842;-88
2022/01/02 05:50:20;;;;;;;8.83;5.60;;;10.40;99.90;;;;;;5102425;28;20449;-87
2022/01/02 05:52:46;;;;;;;8.33;4.47;;;10.40;99.90;;;;;;5123098;28;20570;-87
2022/01/02 05:55:12;;;;;;;12.97;8.40;;;10.40;99.90;;;;;;5115647;28;20203;-88
2022/01/02 05:57:39;;;;;;;5.43;3.90;;;10.40;99.90;;;;;;5114641;28;20163;-88
2022/01/02 06:00:06;;;;;;;12.70;7.03;;;10.40;99.90;;;;;;5096522;28;20446;-86
2022/01/02 06:02:31;;;;;;;6.37;4.43;;;10.40;99.90;;;;;;5113523;28;20410;-87
2022/01/02 06:04:58;;;;;;;7.87;4.67;;;10.40;99.90;;;;;;5113531;28;20425;-87
2022/01/02 06:07:24;;;;;;;10.90;5.23;;;10.40;99.90;;;;;;5113641;28;20417;-84
2022/01/02 06:09:50;;;;;;;12.47;5.87;;;10.40;99.90;;;;;;5095350;28;20778;-89
2022/01/02 06:12:15;;;;;;;7.53;4.77;;;10.40;99.90;;;;;;5095836;28;20171;-89
2022/01/02 06:14:41;;;;;;;10.47;4.33;;;10.40;99.90;;;;;;5113693;28;20535;-88
2022/01/02 06:17:07;;;;;;;8.60;4.77;;;10.40;99.90;;;;;;5095611;28;20167;-89
2022/01/02 06:19:32;;;;;;;9.67;4.40;;;10.40;99.90;;;;;;5095414;28;20176;-87
2022/01/02 06:22:03;;;;;;;5.60;3.40;;;10.40;99.90;;;;;;5095799;28;20183;-90
2022/01/02 06:24:31;;;;;;;6.07;3.47;;;10.40;99.90;;;;;;5113553;28;20564;-89
2022/01/02 06:26:57;;;;;;;9.53;4.00;;;10.50;99.90;;;;;;5095903;28;20410;-90
2022/01/02 06:29:22;;;;;;;8.03;5.03;;;10.50;99.90;;;;;;5095758;28;20417;-92
2022/01/02 06:31:48;;;;;;;6.80;4.40;;;10.50;99.90;;;;;;5095891;28;20222;-89
2022/01/02 06:34:13;;;;;;;6.80;3.70;;;10.50;99.90;;;;;;5113558;28;20281;-90
2022/01/02 06:36:39;;;;;;;6.17;3.27;;;10.60;99.90;;;;;;5095686;28;20186;-89
2022/01/02 06:39:05;;;;;;;7.40;3.97;;;10.60;99.90;;;;;;5113537;28;20327;-89
2022/01/02 06:41:30;;;;;;;7.53;3.77;;;10.60;99.90;;;;;;5114126;28;20164;-91
2022/01/02 06:43:56;;;;;;;7.90;3.77;;;10.60;99.90;;;;;;5113940;28;20406;-91
2022/01/02 06:46:22;;;;;;;8.77;4.00;;;10.60;99.90;;;;;;5113589;28;20203;-91
2022/01/02 06:48:48;;;;;;;5.00;4.03;;;10.60;99.90;;;;;;5114240;28;20172;-87
2022/01/02 06:51:13;;;;;;;8.67;4.17;;;10.60;99.90;;;;;;5117701;28;20243;-86
2022/01/02 06:53:39;;;;;;;7.93;4.63;;;10.50;99.90;;;;;;5117118;28;20409;-90
2022/01/02 06:56:11;;;;;;;9.27;5.03;;;10.60;99.90;;;;;;5117443;28;20168;-91
2022/01/02 06:58:38;;;;;;;9.47;4.67;;;10.50;99.90;;;;;;5099492;28;20261;-90
2022/01/02 07:01:05;;;;;;;5.23;3.13;;;10.50;99.90;;;;;;5099287;28;21006;-89
2022/01/02 07:03:31;;;;;;;6.70;3.90;;;10.50;99.90;;;;;;5099217;28;20427;-90
2022/01/02 07:05:57;;;;;;;6.93;3.07;;;10.50;99.90;;;;;;5099147;28;20426;-90
2022/01/02 07:08:23;;;;;;;6.03;3.13;;;10.50;99.90;;;;;;5117195;28;20412;-90
2022/01/02 07:10:49;;;;;;;8.93;4.27;;;10.60;99.90;;;;;;5117406;28;20503;-90
2022/01/02 07:13:14;;;;;;;6.87;3.93;;;10.60;99.90;;;;;;5117453;28;20164;-90
2022/01/02 07:15:43;;;;;;;8.57;4.80;;;10.60;99.90;;;;;;5117123;28;20271;-91
2022/01/02 07:18:08;;;;;;;10.20;4.33;;;10.70;99.90;;;;;;5117239;28;20170;-89
2022/01/02 07:20:34;;;;;;;11.60;4.90;;;10.70;99.90;;;;;;5116790;28;20414;-89
2022/01/02 07:22:59;;;;;;;6.03;3.50;;;10.60;99.90;;;;;;5116662;28;20217;-88
2022/01/02 07:25:28;;;;;;;10.77;3.77;;;10.70;99.90;;;;;;5117062;28;20718;-89
2022/01/02 07:27:53;;;;;;;9.80;3.60;;;10.70;99.90;;;;;;5108560;28;20235;-88
2022/01/02 07:30:19;;;;;;;6.47;3.07;;;10.70;99.90;;;;;;5118071;28;20450;-89
2022/01/02 07:32:46;;;;;;;9.10;4.17;;;10.80;99.90;;;;;;5118026;28;20163;-88
2022/01/02 07:35:12;;;;;;;8.80;4.83;;;10.80;99.90;;;;;;5121150;28;20204;-89
2022/01/02 07:37:37;;;;;;;6.40;4.37;;;10.80;99.90;;;;;;5118798;28;20534;-90
2022/01/02 07:40:06;;;;;;;11.60;3.13;;;10.80;99.90;;;;;;5116775;28;20177;-89
2022/01/02 07:42:36;;;;;;;11.27;4.47;;;10.80;99.90;;;;;;5116591;28;20167;-89
2022/01/02 07:45:03;;;;;;;16.70;5.13;;;10.90;99.90;;;;;;5116084;28;20422;-87
2022/01/02 07:47:28;;;;;;;7.27;3.10;;;11.00;99.90;;;;;;5116124;28;20435;-88
2022/01/02 07:49:54;;;;;;;9.70;3.93;;;10.90;99.90;;;;;;5116401;28;20496;-88
2022/01/02 07:52:20;;;;;;;8.93;3.70;;;11.00;99.90;;;;;;5116115;28;20586;-89
2022/01/02 07:54:45;;;;;;;10.27;5.60;;;11.00;99.90;;;;;;5116288;28;20208;-89
2022/01/02 07:57:11;;;;;;;8.10;4.03;;;11.00;99.90;;;;;;5116823;28;20168;-89
2022/01/02 07:59:36;;;;;;;9.53;4.53;;;11.00;99.90;;;;;;5115686;28;20176;-89
2022/01/02 08:02:02;;;;;;;8.10;4.43;;;11.00;99.90;;;;;;5115957;28;20172;-90
2022/01/02 08:04:28;;;;;;;8.00;3.00;;;11.00;99.90;;;;;;5115909;28;20168;-87
2022/01/02 08:06:53;;;;;;;17.27;4.93;;;11.00;99.90;;;;;;5115854;28;20256;-90
2022/01/02 08:09:19;;;;;;;7.43;3.67;;;11.00;99.90;;;;;;5115575;28;20252;-88
2022/01/02 08:11:44;;;;;;;9.53;3.80;;;11.00;99.90;;;;;;5115809;28;20192;-86
2022/01/02 08:14:11;;;;;;;8.90;3.87;;;11.00;99.90;;;;;;5115787;28;20207;-89
2022/01/02 08:16:37;;;;;;;9.93;3.60;;;11.10;99.90;;;;;;5115745;28;20625;-88
2022/01/02 08:19:05;;;;;;;9.17;3.97;;;11.10;99.90;;;;;;5115623;28;20458;-91
2022/01/02 08:21:31;;;;;;;5.97;2.73;;;11.00;99.90;;;;;;5115784;28;20169;-90
2022/01/02 08:23:57;;;;;;;7.70;3.17;;;11.10;99.90;;;;;;5096969;28;20431;-90
2022/01/02 08:26:23;;;;;;;7.17;3.53;;;11.10;99.90;;;;;;5115822;28;20280;-91
2022/01/02 08:28:50;;;;;;;5.20;3.20;;;11.10;99.90;;;;;;5115654;28;20641;-90
2022/01/02 08:31:15;;;;;;;8.30;3.80;;;11.20;99.90;;;;;;5115499;28;20427;-91
2022/01/02 08:33:41;;;;;;;9.00;2.90;;;11.20;99.90;;;;;;5115819;28;20421;-90
2022/01/02 08:36:06;;;;;;;4.43;2.60;;;11.20;99.90;;;;;;5115778;28;20176;-87
2022/01/02 08:38:32;;;;;;;8.60;3.63;;;11.30;99.90;;;;;;5115003;28;20221;-91
2022/01/02 08:40:57;;;;;;;7.53;3.30;;;11.30;99.90;;;;;;5115410;28;20260;-92
2022/01/02 08:43:23;;;;;;;8.20;3.13;;;11.40;99.90;;;;;;5115220;28;20618;-92
2022/01/02 08:45:49;;;;;;;5.30;2.43;;;11.30;99.90;;;;;;5115649;28;20223;-91
2022/01/02 08:48:14;;;;;;;8.93;2.97;;;11.40;99.90;;;;;;5115523;28;20181;-90
2022/01/02 08:50:43;;;;;;;6.10;3.33;;;11.40;99.90;;;;;;5117028;28;20173;-92
2022/01/02 08:53:08;;;;;;;6.40;2.20;;;11.50;99.90;;;;;;5115201;28;20260;-90
2022/01/02 08:55:35;;;;;;;3.67;1.90;;;11.50;99.90;;;;;;5115082;28;20627;-90
2022/01/02 08:58:01;;;;;;;3.93;2.33;;;11.50;99.90;;;;;;5116397;28;20173;-90
2022/01/02 09:00:26;;;;;;;6.80;2.63;;;11.60;99.90;;;;;;5115244;28;20415;-89
2022/01/02 09:02:52;;;;;;;5.37;2.20;;;11.50;99.90;;;;;;5114911;28;20936;-90
2022/01/02 09:05:18;;;;;;;4.80;2.20;;;11.60;99.90;;;;;;5114809;28;20169;-86
2022/01/02 09:07:44;;;;;;;9.57;3.23;;;11.60;99.90;;;;;;5114312;28;20170;-90
2022/01/02 09:10:10;;;;;;;5.90;2.20;;;11.60;99.90;;;;;;5114507;28;20474;-89
2022/01/02 09:12:36;;;;;;;4.77;2.17;;;11.60;99.90;;;;;;5095887;28;20181;-86
2022/01/02 09:15:01;;;;;;;6.40;2.70;;;11.60;99.90;;;;;;5114422;28;20202;-88
2022/01/02 09:17:27;;;;;;;5.33;1.97;;;11.60;99.90;;;;;;5096185;28;20176;-88
2022/01/02 09:19:52;;;;;;;5.20;2.53;;;11.60;99.90;;;;;;5114307;28;20172;-88
2022/01/02 09:22:19;;;;;;;4.37;2.30;;;11.60;99.90;;;;;;5114410;28;20209;-88
2022/01/02 09:24:45;;;;;;;5.37;1.80;;;11.60;99.90;;;;;;5114443;28;20172;-87
2022/01/02 09:27:10;;;;;;;5.03;2.33;;;11.60;99.90;;;;;;5114411;28;20412;-87
2022/01/02 09:29:36;;;;;;;6.20;1.80;;;11.60;99.90;;;;;;5096149;28;20174;-87
2022/01/02 09:32:02;;;;;;;7.70;2.07;;;11.60;99.90;;;;;;5114295;28;20178;-87
2022/01/02 09:34:28;;;;;;;7.30;3.40;;;11.60;99.90;;;;;;5114752;28;20210;-87
2022/01/02 09:37:01;;;;;;;11.73;2.70;;;11.60;99.90;;;;;;5113797;28;20415;-90
2022/01/02 09:39:27;;;;;;;6.50;3.20;;;11.60;99.90;;;;;;5114465;28;20427;-87
2022/01/02 09:41:53;;;;;;;7.57;2.57;;;11.60;99.90;;;;;;5096706;28;20836;-90
2022/01/02 09:44:19;;;;;;;8.30;2.47;;;11.70;99.90;;;;;;5115111;28;20168;-87
2022/01/02 09:46:45;;;;;;;7.37;2.23;;;11.70;99.90;;;;;;5096497;28;20557;-89
2022/01/02 09:49:11;;;;;;;5.43;2.63;;;11.70;99.90;;;;;;5114702;28;20215;-91
2022/01/02 09:51:36;;;;;;;4.60;2.40;;;11.60;99.90;;;;;;5114387;28;20418;-88
2022/01/02 09:54:02;;;;;;;6.53;2.50;;;11.70;99.90;;;;;;5095528;28;20214;-89
2022/01/02 09:56:30;;;;;;;4.80;2.40;;;11.70;99.90;;;;;;5114442;28;20230;-90
2022/01/02 09:59:02;;;;;;;6.40;2.00;;;11.70;99.90;;;;;;5114972;28;20256;-90
2022/01/02 10:01:29;;;;;;;4.90;2.23;;;11.70;99.90;;;;;;5114398;28;20427;-87
2022/01/02 10:03:57;;;;;;;6.43;2.40;;;11.70;99.90;;;;;;5113683;28;20754;-88
2022/01/02 10:06:41;;;;;;;11.23;3.43;;;11.70;99.90;;;;;;5095836;28;20426;-88
2022/01/02 10:09:15;;;;;;;6.37;2.43;;;11.70;99.90;;;;;;5096228;28;20404;-90
2022/01/02 10:11:40;;;;;;;6.43;1.90;;;11.70;99.90;;;;;;5096392;28;20423;-90
2022/01/02 10:14:09;;;;;;;7.97;2.40;;;11.70;99.90;;;;;;5114374;28;20460;-88
2022/01/02 10:16:37;;;;;;;4.80;2.93;;;11.70;99.90;;;;;;5114057;28;20642;-88
2022/01/02 10:19:22;;;;;;;7.17;1.80;;;11.70;99.90;;;;;;5115063;28;20797;-87
2022/01/02 10:22:00;;;;;;;3.97;1.60;;;11.70;99.90;;;;;;5115650;28;20407;-84
2022/01/02 10:24:31;;;;;;;5.87;2.30;;;11.70;99.90;;;;;;5116987;28;20470;-86
2022/01/02 10:27:09;;;;;;;4.40;1.93;;;11.70;99.90;;;;;;5117613;28;20803;-85
2022/01/02 10:29:54;;;;;;;7.70;1.87;;;11.80;99.90;;;;;;5099054;28;20417;-85
2022/01/02 10:32:36;;;;;;;3.07;1.30;;;11.80;99.90;;;;;;5117280;28;20840;-85
2022/01/02 10:35:15;;;;;;;4.23;1.83;;;11.80;99.90;;;;;;5098428;28;20474;-86
2022/01/02 10:37:48;;;;;;;8.30;2.77;;;11.80;99.90;;;;;;5098233;28;20525;-86
2022/01/02 10:40:34;;;;;;;4.37;2.23;;;11.80;99.90;;;;;;5098693;28;20407;-87
2022/01/02 10:43:08;;;;;;;4.40;2.53;;;11.80;99.90;;;;;;5116950;28;20747;-86
2022/01/02 10:45:37;;;;;;;4.73;2.77;;;11.80;99.90;;;;;;5116852;28;20806;-86
2022/01/02 10:48:03;;;;;;;3.17;1.90;;;11.80;99.90;;;;;;5116866;28;20415;-86
2022/01/02 10:50:29;;;;;;;4.03;1.17;;;11.80;99.90;;;;;;5116866;28;20953;-85
2022/01/02 10:52:55;;;;;;;4.77;2.60;;;11.80;99.90;;;;;;5098008;28;20422;-85
2022/01/02 10:55:27;;;;;;;5.30;2.27;;;11.70;99.90;;;;;;5116341;28;20208;-86
2022/01/02 10:57:54;;;;;;;8.50;2.73;;;11.80;99.90;;;;;;5098169;28;20173;-86
2022/01/02 11:00:23;;;;;;;6.40;2.30;;;11.80;99.90;;;;;;5098759;28;20456;-86
2022/01/02 11:02:49;;;;;;;4.60;2.07;;;11.90;99.90;;;;;;5116594;28;20918;-87
2022/01/02 11:05:17;;;;;;;6.30;2.40;;;12.00;99.90;;;;;;5098217;28;20416;-86
2022/01/02 11:07:58;;;;;;;5.13;1.90;;;12.10;99.90;;;;;;5116249;28;20299;-85
2022/01/02 11:10:26;;;;;;;5.47;1.70;;;12.10;99.90;;;;;;5116513;28;20437;-85
2022/01/02 11:12:53;;;;;;;7.33;2.90;;;12.10;99.90;;;;;;5116258;28;20409;-86
2022/01/02 11:15:21;;;;;;;6.40;2.07;;;12.00;99.90;;;;;;5116162;28;20849;-84
2022/01/02 11:17:47;;;;;;;3.97;2.27;;;12.00;99.90;;;;;;5097977;28;20414;-85
2022/01/02 11:20:15;;;;;;;3.57;2.30;;;12.00;99.90;;;;;;5116277;28;20411;-85
2022/01/02 11:22:52;;;;;;;6.53;2.17;;;12.00;99.90;;;;;;5115909;28;20516;-85
2022/01/02 11:25:42;;;;;;;6.23;1.73;;;12.10;99.90;;;;;;5116133;28;20769;-85
2022/01/02 11:28:35;;;;;;;9.80;2.70;;;12.40;99.90;;;;;;5115971;28;20476;-87
2022/01/02 11:31:03;;;;;;;10.13;1.43;;;12.50;99.90;;;;;;5102921;28;20427;-85
2022/01/02 11:33:35;;;;;;;6.33;1.60;;;12.90;99.90;;;;;;5096541;28;20501;-85
2022/01/02 11:36:34;;;;;;;6.47;2.37;;;12.80;99.90;;;;;;5114216;28;20462;-87
2022/01/02 11:39:08;;;;;;;7.77;2.17;;;12.70;99.90;;;;;;5096655;28;20499;-87
2022/01/02 11:41:48;;;;;;;2.80;1.67;;;12.60;99.90;;;;;;5096362;28;20428;-84
2022/01/02 11:44:16;;;;;;;2.70;2.23;;;12.50;99.90;;;;;;5114630;28;20416;-84
2022/01/02 11:46:52;;;;;;;7.53;1.80;;;12.50;99.90;;;;;;5096196;28;20423;-84
2022/01/02 11:49:20;;;;;;;5.43;1.23;;;12.40;99.90;;;;;;5109362;28;20470;-83
2022/01/02 11:51:56;;;;;;;7.33;1.40;;;12.40;99.90;;;;;;5113992;28;20495;-84
2022/01/02 11:54:28;;;;;;;7.00;2.40;;;12.40;99.90;;;;;;5114306;28;20451;-84
2022/01/02 11:57:12;;;;;;;5.37;1.77;;;12.40;99.90;;;;;;5096010;28;20428;-84
2022/01/02 11:59:42;;;;;;;5.10;2.80;;;12.40;99.90;;;;;;5114204;28;20405;-85
2022/01/02 12:02:08;;;;;;;3.93;1.47;;;12.40;99.90;;;;;;5095752;28;20397;-84
2022/01/02 12:07:58;;;;;;;4.60;1.40;;;12.40;99.90;;;;;;5113715;28;20410;-84
2022/01/02 12:10:47;;;;;;;6.20;2.50;;;12.30;99.90;;;;;;5114036;28;20439;-82
2022/01/02 12:13:20;;;;;;;6.03;2.43;;;12.40;99.90;;;;;;5095792;28;20411;-85
2022/01/02 12:15:45;;;;;;;7.20;2.37;;;12.40;99.90;;;;;;5095748;28;20493;-85
2022/01/02 12:18:38;;;;;;;11.57;2.57;;;12.40;99.90;;;;;;5114043;28;20403;-85
2022/01/02 12:21:04;;;;;;;4.90;2.10;;;12.40;99.90;;;;;;5114007;28;20166;-85
2022/01/02 12:23:35;;;;;;;6.63;1.80;;;12.40;99.90;;;;;;5113573;28;20407;-84
2022/01/02 12:26:10;;;;;;;5.50;2.10;;;12.40;99.90;;;;;;5113826;28;20277;-86
2022/01/02 12:28:40;;;;;;;6.73;2.53;;;12.40;99.90;;;;;;5096130;28;20513;-86
2022/01/02 12:31:11;;;;;;;5.43;1.70;;;12.40;99.90;;;;;;5096442;28;20508;-85
2022/01/02 12:33:38;;;;;;;4.80;2.00;;;12.50;99.90;;;;;;5095341;28;20420;-85
2022/01/02 12:36:20;;;;;;;8.33;2.50;;;12.60;99.90;;;;;;5114644;28;20515;-82
2022/01/02 12:38:51;;;;;;;4.33;1.80;;;12.80;99.90;;;;;;5114162;28;20460;-79
2022/01/02 12:41:26;;;;;;;4.37;1.43;;;13.10;99.90;;;;;;5093254;28;20420;-82
2022/01/02 12:43:57;;;;;;;6.50;2.83;;;13.30;99.90;;;;;;5113330;28;20420;-82
2022/01/02 12:46:32;;;;;;;4.53;1.50;;;13.70;99.90;;;;;;5093904;28;20808;-81
2022/01/02 12:48:59;;;;;;;6.13;1.73;;;13.40;99.90;;;;;;5113058;28;20413;-82
2022/01/02 12:51:31;;;;;;;5.70;1.73;;;13.20;99.90;;;;;;5112834;28;20482;-81
2022/01/02 12:54:05;;;;;;;3.80;1.70;;;13.00;99.90;;;;;;5112798;28;20474;-79
2022/01/02 12:56:51;;;;;;;6.17;1.60;;;12.80;99.90;;;;;;5112922;28;20488;-82